sensor_id;sensor_type;location;lat;lon;timestamp;P1;durP1;ratioP1;P2;durP2;ratioP2
30185;SDS011;31152;49.190;8.122;2024-03-08T13:17:06;17.88;;;14.35;;
30185;SDS011;31152;49.190;8.122;2024-03-08T13:19:37;19.77;;;14.77;;
30185;SDS011;31152;49.190;8.122;2024-03-08T13:22:07;21.92;;;14.95;;
30185;SDS011;31152;49.190;8.122;2024-03-08T13:24:39;23.30;;;16.00;;
30185;SDS011;31152;49.190;8.122;2024-03-08T13:27:09;20.38;;;15.43;;
30185;SDS011;31152;49.190;8.122;2024-03-08T13:29:50;20.85;;;13.98;;
30185;SDS011;31152;49.190;8.122;2024-03-08T13:32:17;19.02;;;14.18;;
30185;SDS011;31152;49.190;8.122;2024-03-08T13:34:46;21.52;;;15.02;;
30185;SDS011;31152;49.190;8.122;2024-03-08T13:37:14;21.90;;;14.60;;
30185;SDS011;31152;49.190;8.122;2024-03-08T13:39:44;19.55;;;14.00;;
30185;SDS011;31152;49.190;8.122;2024-03-08T13:42:11;21.35;;;15.00;;
30185;SDS011;31152;49.190;8.122;2024-03-08T13:44:42;21.23;;;14.77;;
30185;SDS011;31152;49.190;8.122;2024-03-08T13:47:12;25.63;;;15.63;;
30185;SDS011;31152;49.190;8.122;2024-03-08T13:49:40;20.60;;;14.52;;
30185;SDS011;31152;49.190;8.122;2024-03-08T13:52:17;20.98;;;15.45;;
30185;SDS011;31152;49.190;8.122;2024-03-08T13:54:45;21.88;;;15.48;;
30185;SDS011;31152;49.190;8.122;2024-03-08T13:57:12;21.17;;;14.27;;
30185;SDS011;31152;49.190;8.122;2024-03-08T13:59:39;23.80;;;15.82;;
30185;SDS011;31152;49.190;8.122;2024-03-08T14:02:10;21.20;;;14.73;;
30185;SDS011;31152;49.190;8.122;2024-03-08T14:04:40;20.67;;;15.18;;
30185;SDS011;31152;49.190;8.122;2024-03-08T14:07:10;23.13;;;16.00;;
30185;SDS011;31152;49.190;8.122;2024-03-08T14:09:37;22.70;;;16.10;;
30185;SDS011;31152;49.190;8.122;2024-03-08T14:12:11;21.35;;;14.27;;
30185;SDS011;31152;49.190;8.122;2024-03-08T14:14:38;21.75;;;15.43;;
30185;SDS011;31152;49.190;8.122;2024-03-08T14:17:05;21.70;;;15.70;;
30185;SDS011;31152;49.190;8.122;2024-03-08T14:19:37;24.80;;;16.35;;
30185;SDS011;31152;49.190;8.122;2024-03-08T14:22:05;22.48;;;15.65;;
30185;SDS011;31152;49.190;8.122;2024-03-08T14:24:37;23.02;;;14.45;;
30185;SDS011;31152;49.190;8.122;2024-03-08T14:27:03;21.95;;;15.45;;
30185;SDS011;31152;49.190;8.122;2024-03-08T14:29:35;21.73;;;14.68;;
30185;SDS011;31152;49.190;8.122;2024-03-08T14:32:02;24.20;;;15.13;;
30185;SDS011;31152;49.190;8.122;2024-03-08T14:34:32;23.98;;;15.60;;
30185;SDS011;31152;49.190;8.122;2024-03-08T14:37:00;22.30;;;15.88;;
30185;SDS011;31152;49.190;8.122;2024-03-08T14:39:31;25.50;;;15.95;;
30185;SDS011;31152;49.190;8.122;2024-03-08T14:41:59;22.73;;;15.13;;
30185;SDS011;31152;49.190;8.122;2024-03-08T14:44:29;22.50;;;16.00;;
30185;SDS011;31152;49.190;8.122;2024-03-08T14:46:56;25.20;;;16.20;;
30185;SDS011;31152;49.190;8.122;2024-03-08T14:49:23;23.70;;;15.85;;
30185;SDS011;31152;49.190;8.122;2024-03-08T14:51:55;26.73;;;15.85;;
30185;SDS011;31152;49.190;8.122;2024-03-08T14:54:24;22.92;;;14.90;;
30185;SDS011;31152;49.190;8.122;2024-03-08T14:56:53;23.70;;;15.95;;
30185;SDS011;31152;49.190;8.122;2024-03-08T14:59:22;25.05;;;15.25;;
30185;SDS011;31152;49.190;8.122;2024-03-08T15:01:52;25.35;;;16.05;;
30185;SDS011;31152;49.190;8.122;2024-03-08T15:04:18;24.13;;;15.55;;
30185;SDS011;31152;49.190;8.122;2024-03-08T15:06:50;22.15;;;15.63;;
30185;SDS011;31152;49.190;8.122;2024-03-08T15:09:19;27.60;;;16.10;;
30185;SDS011;31152;49.190;8.122;2024-03-08T15:11:46;22.58;;;14.85;;
30185;SDS011;31152;49.190;8.122;2024-03-08T15:14:16;23.08;;;15.45;;
30185;SDS011;31152;49.190;8.122;2024-03-08T15:16:45;25.58;;;15.50;;
30185;SDS011;31152;49.190;8.122;2024-03-08T15:19:16;22.55;;;14.23;;
30185;SDS011;31152;49.190;8.122;2024-03-08T15:21:43;21.10;;;14.77;;
30185;SDS011;31152;49.190;8.122;2024-03-08T15:24:14;23.27;;;14.68;;
30185;SDS011;31152;49.190;8.122;2024-03-08T15:26:47;22.10;;;15.80;;
30185;SDS011;31152;49.190;8.122;2024-03-08T15:29:17;21.60;;;15.15;;
30185;SDS011;31152;49.190;8.122;2024-03-08T15:31:50;21.83;;;15.55;;
30185;SDS011;31152;49.190;8.122;2024-03-08T15:34:20;22.40;;;15.02;;
30185;SDS011;31152;49.190;8.122;2024-03-08T15:36:51;20.73;;;14.80;;
30185;SDS011;31152;49.190;8.122;2024-03-08T15:39:19;27.38;;;16.67;;
30185;SDS011;31152;49.190;8.122;2024-03-08T15:41:50;22.55;;;16.17;;
30185;SDS011;31152;49.190;8.122;2024-03-08T15:44:17;22.35;;;15.02;;
30185;SDS011;31152;49.190;8.122;2024-03-08T15:46:44;24.60;;;15.68;;
30185;SDS011;31152;49.190;8.122;2024-03-08T15:49:12;24.13;;;15.45;;
30185;SDS011;31152;49.190;8.122;2024-03-08T15:51:40;25.95;;;15.70;;
30185;SDS011;31152;49.190;8.122;2024-03-08T15:54:07;22.85;;;15.45;;
30185;SDS011;31152;49.190;8.122;2024-03-08T15:56:34;24.60;;;16.38;;
30185;SDS011;31152;49.190;8.122;2024-03-08T15:59:01;23.02;;;15.23;;
30185;SDS011;31152;49.190;8.122;2024-03-08T16:01:34;27.90;;;16.67;;
30185;SDS011;31152;49.190;8.122;2024-03-08T16:04:01;23.38;;;15.95;;
30185;SDS011;31152;49.190;8.122;2024-03-08T16:06:28;24.83;;;16.77;;
30185;SDS011;31152;49.190;8.122;2024-03-08T16:08:57;24.70;;;15.40;;
30185;SDS011;31152;49.190;8.122;2024-03-08T16:11:26;22.58;;;15.52;;
30185;SDS011;31152;49.190;8.122;2024-03-08T16:13:59;24.38;;;15.27;;
30185;SDS011;31152;49.190;8.122;2024-03-08T16:16:27;25.15;;;16.55;;
30185;SDS011;31152;49.190;8.122;2024-03-08T16:18:59;22.20;;;16.02;;
30185;SDS011;31152;49.190;8.122;2024-03-08T16:21:31;25.35;;;15.82;;
30185;SDS011;31152;49.190;8.122;2024-03-08T16:24:02;22.63;;;15.55;;
30185;SDS011;31152;49.190;8.122;2024-03-08T16:26:32;21.23;;;16.00;;
30185;SDS011;31152;49.190;8.122;2024-03-08T16:29:02;23.67;;;16.63;;
30185;SDS011;31152;49.190;8.122;2024-03-08T16:31:30;24.30;;;16.92;;
30185;SDS011;31152;49.190;8.122;2024-03-08T16:34:00;26.65;;;16.83;;
30185;SDS011;31152;49.190;8.122;2024-03-08T16:36:27;26.83;;;16.23;;
30185;SDS011;31152;49.190;8.122;2024-03-08T16:38:57;23.00;;;16.50;;
30185;SDS011;31152;49.190;8.122;2024-03-08T16:41:24;21.70;;;15.65;;
30185;SDS011;31152;49.190;8.122;2024-03-08T16:43:51;22.52;;;15.73;;
30185;SDS011;31152;49.190;8.122;2024-03-08T16:46:18;26.90;;;16.45;;
30185;SDS011;31152;49.190;8.122;2024-03-08T16:48:47;26.45;;;17.15;;
30185;SDS011;31152;49.190;8.122;2024-03-08T16:51:15;25.30;;;16.67;;
30185;SDS011;31152;49.190;8.122;2024-03-08T16:53:42;25.95;;;16.92;;
30185;SDS011;31152;49.190;8.122;2024-03-08T16:56:09;29.58;;;17.08;;
30185;SDS011;31152;49.190;8.122;2024-03-08T16:58:39;28.17;;;17.35;;
30185;SDS011;31152;49.190;8.122;2024-03-08T17:01:08;26.08;;;16.75;;
30185;SDS011;31152;49.190;8.122;2024-03-08T17:03:35;24.98;;;15.60;;
30185;SDS011;31152;49.190;8.122;2024-03-08T17:06:17;30.30;;;17.30;;
30185;SDS011;31152;49.190;8.122;2024-03-08T17:08:44;33.58;;;17.10;;
30185;SDS011;31152;49.190;8.122;2024-03-08T17:11:12;26.35;;;16.85;;
30185;SDS011;31152;49.190;8.122;2024-03-08T17:13:40;30.70;;;16.98;;
30185;SDS011;31152;49.190;8.122;2024-03-08T17:16:07;28.98;;;17.73;;
30185;SDS011;31152;49.190;8.122;2024-03-08T17:18:38;31.02;;;17.52;;
30185;SDS011;31152;49.190;8.122;2024-03-08T17:21:07;29.27;;;17.02;;
30185;SDS011;31152;49.190;8.122;2024-03-08T17:23:39;29.15;;;17.10;;
30185;SDS011;31152;49.190;8.122;2024-03-08T17:26:06;33.58;;;18.88;;
30185;SDS011;31152;49.190;8.122;2024-03-08T17:28:35;37.17;;;20.23;;
30185;SDS011;31152;49.190;8.122;2024-03-08T17:31:04;41.65;;;20.25;;
30185;SDS011;31152;49.190;8.122;2024-03-08T17:33:34;36.55;;;18.98;;
30185;SDS011;31152;49.190;8.122;2024-03-08T17:36:01;38.05;;;21.10;;
30185;SDS011;31152;49.190;8.122;2024-03-08T17:38:33;37.58;;;21.20;;
30185;SDS011;31152;49.190;8.122;2024-03-08T17:41:14;40.58;;;21.92;;
30185;SDS011;31152;49.190;8.122;2024-03-08T17:43:45;39.35;;;21.15;;
30185;SDS011;31152;49.190;8.122;2024-03-08T17:46:14;41.90;;;20.20;;
30185;SDS011;31152;49.190;8.122;2024-03-08T17:48:41;40.15;;;21.35;;
30185;SDS011;31152;49.190;8.122;2024-03-08T17:51:10;34.25;;;20.45;;
30185;SDS011;31152;49.190;8.122;2024-03-08T17:53:40;35.75;;;19.95;;
30185;SDS011;31152;49.190;8.122;2024-03-08T17:56:11;33.75;;;19.65;;
30185;SDS011;31152;49.190;8.122;2024-03-08T17:58:40;38.33;;;19.15;;
30185;SDS011;31152;49.190;8.122;2024-03-08T18:01:09;42.70;;;19.98;;
30185;SDS011;31152;49.190;8.122;2024-03-08T18:03:38;43.85;;;19.95;;
30185;SDS011;31152;49.190;8.122;2024-03-08T18:06:06;43.10;;;20.70;;
30185;SDS011;31152;49.190;8.122;2024-03-08T18:08:35;36.95;;;19.67;;
30185;SDS011;31152;49.190;8.122;2024-03-08T18:11:04;38.88;;;20.05;;
30185;SDS011;31152;49.190;8.122;2024-03-08T18:13:31;39.90;;;20.50;;
30185;SDS011;31152;49.190;8.122;2024-03-08T18:15:59;37.03;;;21.77;;
30185;SDS011;31152;49.190;8.122;2024-03-08T18:18:26;36.50;;;20.75;;
30185;SDS011;31152;49.190;8.122;2024-03-08T18:20:53;39.95;;;20.92;;
30185;SDS011;31152;49.190;8.122;2024-03-08T18:23:23;41.38;;;20.85;;
30185;SDS011;31152;49.190;8.122;2024-03-08T18:25:50;62.88;;;22.35;;
30185;SDS011;31152;49.190;8.122;2024-03-08T18:28:20;44.53;;;22.70;;
30185;SDS011;31152;49.190;8.122;2024-03-08T18:30:48;46.17;;;20.60;;
30185;SDS011;31152;49.190;8.122;2024-03-08T18:33:16;34.05;;;19.48;;
30185;SDS011;31152;49.190;8.122;2024-03-08T18:35:44;35.83;;;19.55;;
30185;SDS011;31152;49.190;8.122;2024-03-08T18:38:11;33.58;;;19.63;;
30185;SDS011;31152;49.190;8.122;2024-03-08T18:40:40;38.00;;;20.33;;
30185;SDS011;31152;49.190;8.122;2024-03-08T18:43:11;38.60;;;20.33;;
30185;SDS011;31152;49.190;8.122;2024-03-08T18:45:40;36.17;;;19.23;;
30185;SDS011;31152;49.190;8.122;2024-03-08T18:48:10;37.75;;;20.00;;
30185;SDS011;31152;49.190;8.122;2024-03-08T18:50:38;39.70;;;19.83;;
30185;SDS011;31152;49.190;8.122;2024-03-08T18:53:05;38.50;;;21.13;;
30185;SDS011;31152;49.190;8.122;2024-03-08T18:55:33;39.97;;;19.90;;
30185;SDS011;31152;49.190;8.122;2024-03-08T18:58:01;34.58;;;20.23;;
30185;SDS011;31152;49.190;8.122;2024-03-08T19:00:31;40.83;;;21.45;;
30185;SDS011;31152;49.190;8.122;2024-03-08T19:03:06;40.42;;;20.35;;
30185;SDS011;31152;49.190;8.122;2024-03-08T19:05:36;38.22;;;19.77;;
30185;SDS011;31152;49.190;8.122;2024-03-08T19:08:06;37.97;;;21.05;;
30185;SDS011;31152;49.190;8.122;2024-03-08T19:10:35;35.88;;;20.08;;
30185;SDS011;31152;49.190;8.122;2024-03-08T19:13:08;36.17;;;19.23;;
30185;SDS011;31152;49.190;8.122;2024-03-08T19:15:40;40.38;;;19.50;;
30185;SDS011;31152;49.190;8.122;2024-03-08T19:18:08;34.67;;;18.65;;
30185;SDS011;31152;49.190;8.122;2024-03-08T19:20:36;35.90;;;17.88;;
30185;SDS011;31152;49.190;8.122;2024-03-08T19:23:04;40.03;;;20.52;;
30185;SDS011;31152;49.190;8.122;2024-03-08T19:25:33;35.28;;;19.60;;
30185;SDS011;31152;49.190;8.122;2024-03-08T19:28:02;35.97;;;19.35;;
30185;SDS011;31152;49.190;8.122;2024-03-08T19:30:31;37.33;;;19.40;;
30185;SDS011;31152;49.190;8.122;2024-03-08T19:33:04;35.40;;;18.30;;
30185;SDS011;31152;49.190;8.122;2024-03-08T19:35:34;33.92;;;19.48;;
30185;SDS011;31152;49.190;8.122;2024-03-08T19:38:04;35.63;;;19.45;;
30185;SDS011;31152;49.190;8.122;2024-03-08T19:40:38;38.83;;;19.00;;
30185;SDS011;31152;49.190;8.122;2024-03-08T19:43:10;35.13;;;18.88;;
30185;SDS011;31152;49.190;8.122;2024-03-08T19:45:38;35.88;;;18.25;;
30185;SDS011;31152;49.190;8.122;2024-03-08T19:48:06;37.97;;;18.95;;
30185;SDS011;31152;49.190;8.122;2024-03-08T19:50:43;36.53;;;18.02;;
30185;SDS011;31152;49.190;8.122;2024-03-08T19:53:13;32.60;;;17.73;;
30185;SDS011;31152;49.190;8.122;2024-03-08T19:55:43;40.47;;;18.38;;
30185;SDS011;31152;49.190;8.122;2024-03-08T19:58:15;35.17;;;18.40;;
30185;SDS011;31152;49.190;8.122;2024-03-08T20:00:45;32.50;;;18.02;;
30185;SDS011;31152;49.190;8.122;2024-03-08T20:03:13;30.17;;;17.15;;
30185;SDS011;31152;49.190;8.122;2024-03-08T20:05:47;35.42;;;18.60;;
30185;SDS011;31152;49.190;8.122;2024-03-08T20:08:14;34.53;;;18.00;;
30185;SDS011;31152;49.190;8.122;2024-03-08T20:10:45;33.35;;;18.27;;
30185;SDS011;31152;49.190;8.122;2024-03-08T20:13:13;31.75;;;16.90;;
30185;SDS011;31152;49.190;8.122;2024-03-08T20:15:43;33.58;;;16.90;;
30185;SDS011;31152;49.190;8.122;2024-03-08T20:18:19;35.67;;;17.95;;
30185;SDS011;31152;49.190;8.122;2024-03-08T20:20:49;33.88;;;18.00;;
30185;SDS011;31152;49.190;8.122;2024-03-08T20:23:21;36.88;;;18.45;;
30185;SDS011;31152;49.190;8.122;2024-03-08T20:25:49;31.92;;;17.83;;
30185;SDS011;31152;49.190;8.122;2024-03-08T20:28:17;33.55;;;18.05;;
30185;SDS011;31152;49.190;8.122;2024-03-08T20:30:44;32.92;;;18.55;;
30185;SDS011;31152;49.190;8.122;2024-03-08T20:33:13;31.30;;;16.85;;
30185;SDS011;31152;49.190;8.122;2024-03-08T20:35:40;35.20;;;16.60;;
30185;SDS011;31152;49.190;8.122;2024-03-08T20:38:07;37.38;;;18.98;;
30185;SDS011;31152;49.190;8.122;2024-03-08T20:40:36;31.75;;;16.48;;
30185;SDS011;31152;49.190;8.122;2024-03-08T20:43:05;30.27;;;16.40;;
30185;SDS011;31152;49.190;8.122;2024-03-08T20:45:42;32.78;;;16.30;;
30185;SDS011;31152;49.190;8.122;2024-03-08T20:48:09;37.30;;;17.25;;
30185;SDS011;31152;49.190;8.122;2024-03-08T20:50:36;31.40;;;17.45;;
30185;SDS011;31152;49.190;8.122;2024-03-08T20:53:08;35.67;;;17.20;;
30185;SDS011;31152;49.190;8.122;2024-03-08T20:55:39;33.30;;;17.17;;
30185;SDS011;31152;49.190;8.122;2024-03-08T20:58:09;36.08;;;17.02;;
30185;SDS011;31152;49.190;8.122;2024-03-08T21:00:37;32.25;;;17.05;;
30185;SDS011;31152;49.190;8.122;2024-03-08T21:03:08;37.45;;;17.33;;
30185;SDS011;31152;49.190;8.122;2024-03-08T21:05:40;32.92;;;16.35;;
30185;SDS011;31152;49.190;8.122;2024-03-08T21:08:13;33.08;;;16.92;;
30185;SDS011;31152;49.190;8.122;2024-03-08T21:10:42;34.55;;;17.50;;
30185;SDS011;31152;49.190;8.122;2024-03-08T21:13:12;29.33;;;16.50;;
30185;SDS011;31152;49.190;8.122;2024-03-08T21:15:39;34.65;;;17.05;;
30185;SDS011;31152;49.190;8.122;2024-03-08T21:18:07;30.45;;;16.75;;
30185;SDS011;31152;49.190;8.122;2024-03-08T21:20:39;30.35;;;15.68;;
30185;SDS011;31152;49.190;8.122;2024-03-08T21:23:09;30.48;;;16.05;;
30185;SDS011;31152;49.190;8.122;2024-03-08T21:25:41;31.55;;;17.48;;
30185;SDS011;31152;49.190;8.122;2024-03-08T21:28:10;33.97;;;17.48;;
30185;SDS011;31152;49.190;8.122;2024-03-08T21:30:37;32.70;;;16.25;;
30185;SDS011;31152;49.190;8.122;2024-03-08T21:33:05;33.97;;;16.13;;
30185;SDS011;31152;49.190;8.122;2024-03-08T21:35:37;27.80;;;16.15;;
30185;SDS011;31152;49.190;8.122;2024-03-08T21:38:04;29.63;;;15.77;;
30185;SDS011;31152;49.190;8.122;2024-03-08T21:40:33;30.10;;;15.07;;
30185;SDS011;31152;49.190;8.122;2024-03-08T21:43:02;33.33;;;14.73;;
30185;SDS011;31152;49.190;8.122;2024-03-08T21:45:30;27.25;;;15.07;;
30185;SDS011;31152;49.190;8.122;2024-03-08T21:47:58;27.67;;;14.68;;
30185;SDS011;31152;49.190;8.122;2024-03-08T21:50:30;27.27;;;14.85;;
30185;SDS011;31152;49.190;8.122;2024-03-08T21:52:57;35.33;;;16.10;;
30185;SDS011;31152;49.190;8.122;2024-03-08T21:55:26;31.73;;;14.70;;
30185;SDS011;31152;49.190;8.122;2024-03-08T21:57:54;28.95;;;15.00;;
30185;SDS011;31152;49.190;8.122;2024-03-08T22:00:21;26.52;;;15.02;;
30185;SDS011;31152;49.190;8.122;2024-03-08T22:02:49;26.75;;;13.65;;
30185;SDS011;31152;49.190;8.122;2024-03-08T22:05:19;26.75;;;13.90;;
30185;SDS011;31152;49.190;8.122;2024-03-08T22:07:47;26.15;;;13.43;;
30185;SDS011;31152;49.190;8.122;2024-03-08T22:10:18;30.13;;;14.75;;
30185;SDS011;31152;49.190;8.122;2024-03-08T22:12:52;28.52;;;13.52;;
30185;SDS011;31152;49.190;8.122;2024-03-08T22:15:24;28.30;;;14.43;;
30185;SDS011;31152;49.190;8.122;2024-03-08T22:17:51;26.27;;;13.57;;
30185;SDS011;31152;49.190;8.122;2024-03-08T22:20:22;24.75;;;13.15;;
30185;SDS011;31152;49.190;8.122;2024-03-08T22:22:59;30.27;;;15.15;;
30185;SDS011;31152;49.190;8.122;2024-03-08T22:25:28;29.40;;;13.88;;
30185;SDS011;31152;49.190;8.122;2024-03-08T22:27:56;30.60;;;13.38;;
30185;SDS011;31152;49.190;8.122;2024-03-08T22:30:23;26.70;;;12.98;;
30185;SDS011;31152;49.190;8.122;2024-03-08T22:32:51;26.30;;;13.48;;
30185;SDS011;31152;49.190;8.122;2024-03-08T22:35:22;25.63;;;12.95;;
30185;SDS011;31152;49.190;8.122;2024-03-08T22:37:50;31.40;;;13.82;;
30185;SDS011;31152;49.190;8.122;2024-03-08T22:40:18;26.23;;;13.50;;
30185;SDS011;31152;49.190;8.122;2024-03-08T22:42:51;25.83;;;14.35;;
30185;SDS011;31152;49.190;8.122;2024-03-08T22:45:18;29.25;;;14.02;;
30185;SDS011;31152;49.190;8.122;2024-03-08T22:47:45;24.08;;;13.30;;
30185;SDS011;31152;49.190;8.122;2024-03-08T22:50:15;25.25;;;13.45;;
30185;SDS011;31152;49.190;8.122;2024-03-08T22:52:44;24.77;;;12.65;;
30185;SDS011;31152;49.190;8.122;2024-03-08T22:55:12;22.90;;;12.73;;
30185;SDS011;31152;49.190;8.122;2024-03-08T22:57:47;24.75;;;12.90;;
30185;SDS011;31152;49.190;8.122;2024-03-08T23:00:20;23.08;;;11.60;;
30185;SDS011;31152;49.190;8.122;2024-03-08T23:02:51;22.55;;;12.13;;
30185;SDS011;31152;49.190;8.122;2024-03-08T23:05:20;22.05;;;11.90;;
30185;SDS011;31152;49.190;8.122;2024-03-08T23:07:49;22.98;;;11.85;;
30185;SDS011;31152;49.190;8.122;2024-03-08T23:10:17;23.30;;;12.35;;
30185;SDS011;31152;49.190;8.122;2024-03-08T23:12:46;25.02;;;12.32;;
30185;SDS011;31152;49.190;8.122;2024-03-08T23:15:13;23.40;;;11.95;;
30185;SDS011;31152;49.190;8.122;2024-03-08T23:17:45;21.88;;;11.40;;
30185;SDS011;31152;49.190;8.122;2024-03-08T23:20:17;24.67;;;12.10;;
30185;SDS011;31152;49.190;8.122;2024-03-08T23:22:45;25.33;;;12.40;;
30185;SDS011;31152;49.190;8.122;2024-03-08T23:25:19;35.85;;;12.65;;
30185;SDS011;31152;49.190;8.122;2024-03-08T23:30:17;25.98;;;13.15;;
30185;SDS011;31152;49.190;8.122;2024-03-08T23:32:49;19.50;;;10.68;;
30185;SDS011;31152;49.190;8.122;2024-03-08T23:35:16;24.02;;;11.93;;
30185;SDS011;31152;49.190;8.122;2024-03-08T23:37:45;21.25;;;11.57;;
30185;SDS011;31152;49.190;8.122;2024-03-08T23:40:16;19.58;;;11.52;;
30185;SDS011;31152;49.190;8.122;2024-03-08T23:42:45;22.70;;;11.40;;
30185;SDS011;31152;49.190;8.122;2024-03-08T23:45:16;21.02;;;10.93;;
30185;SDS011;31152;49.190;8.122;2024-03-08T23:47:48;20.80;;;11.38;;
30185;SDS011;31152;49.190;8.122;2024-03-08T23:50:17;20.90;;;10.73;;
30185;SDS011;31152;49.190;8.122;2024-03-08T23:52:49;21.27;;;10.82;;
30185;SDS011;31152;49.190;8.122;2024-03-08T23:55:17;19.25;;;10.75;;
30185;SDS011;31152;49.190;8.122;2024-03-08T23:58:02;20.38;;;11.10;;
